Time;durP1;ratioP1;P1;durP2;ratioP2;P2;SDS_P1;SDS_P2;PMS_P1;PMS_P2;Temp;Humidity;BMP_temperature;BMP_pressure;BME280_temperature;BME280_humidity;BME280_pressure;Samples;Min_cycle;Max_cycle;Signal;HPM_P1;HPM_P2
2021/12/13 00:04:42;;;;;;;147.30;68.70;;;;;;;-0.38;66.32;99841.47;212393;1322;139521;-61
2021/12/13 00:09:48;;;;;;;137.10;63.60;;;;;;;-0.47;66.11;99846.39;212998;1322;139819;-53
2021/12/13 00:14:55;;;;;;;139.00;63.40;;;;;;;-0.56;65.88;99846.78;212019;1329;140613;-56
2021/12/13 00:20:08;;;;;;;141.90;65.30;;;;;;;-0.59;66.21;99845.04;212163;1329;140208;-60
2021/12/13 00:25:17;;;;;;;144.20;69.60;;;;;;;-0.55;66.14;99845.90;213469;1320;139604;-59
2021/12/13 00:30:48;;;;;;;147.20;70.20;;;;;;;-0.60;66.10;99839.48;212465;1322;139792;-60
2021/12/13 00:36:01;;;;;;;156.90;72.90;;;;;;;-0.60;66.28;99841.57;212890;1323;139372;-59
2021/12/13 00:41:10;;;;;;;154.00;71.60;;;;;;;-0.61;66.16;99844.18;213120;1323;139605;-57
2021/12/13 00:46:15;;;;;;;159.10;73.60;;;;;;;-0.65;65.92;99839.14;212607;1319;140146;-60
2021/12/13 00:51:27;;;;;;;154.40;70.70;;;;;;;-0.74;66.12;99840.23;212624;1328;139491;-60
2021/12/13 00:56:54;;;;;;;146.20;69.90;;;;;;;-0.79;66.00;99834.15;212928;1322;140055;-59
2021/12/13 01:02:11;;;;;;;155.10;72.70;;;;;;;-0.83;66.23;99829.45;212419;1326;140725;-57
2021/12/13 01:07:32;;;;;;;150.70;70.00;;;;;;;-0.83;66.27;99837.99;213161;1322;138954;-58
2021/12/13 01:12:37;;;;;;;172.40;77.10;;;;;;;-0.84;66.19;99837.99;212806;1324;138984;-58
2021/12/13 01:18:16;;;;;;;169.20;79.40;;;;;;;-0.89;66.24;99838.18;212294;1323;139832;-60
2021/12/13 01:23:38;;;;;;;167.20;79.20;;;;;;;-0.90;66.50;99851.41;212363;1326;139850;-59
2021/12/13 01:28:46;;;;;;;158.10;77.60;;;;;;;-0.86;66.57;99845.30;212141;1328;139513;-59
2021/12/13 01:33:52;;;;;;;168.90;79.00;;;;;;;-0.84;66.50;99839.91;212329;1322;139034;-57
2021/12/13 01:39:05;;;;;;;174.20;78.90;;;;;;;-0.86;66.44;99847.93;212278;1326;139425;-56
2021/12/13 01:44:14;;;;;;;161.80;71.80;;;;;;;-0.84;66.37;99842.52;212537;1322;141673;-58
2021/12/13 01:49:27;;;;;;;160.70;70.40;;;;;;;-0.82;66.22;99841.64;212985;1322;139108;-58
2021/12/13 01:54:30;;;;;;;162.10;72.70;;;;;;;-0.85;65.85;99836.42;212596;1323;139715;-58
2021/12/13 01:59:47;;;;;;;153.20;72.00;;;;;;;-0.87;65.97;99847.40;212750;1322;139571;-57
2021/12/13 02:05:09;;;;;;;163.60;76.70;;;;;;;-0.93;65.71;99838.20;211825;1325;139405;-55
2021/12/13 02:10:38;;;;;;;164.60;74.90;;;;;;;-0.95;65.98;99837.86;212792;1322;139326;-57
2021/12/13 02:21:26;;;;;;;150.60;71.60;;;;;;;-0.98;65.72;99807.90;213192;1322;150390;-58
2021/12/13 02:26:31;;;;;;;141.40;67.80;;;;;;;-1.05;65.58;99807.23;213129;1320;139635;-58
2021/12/13 02:31:39;;;;;;;148.00;67.30;;;;;;;-1.12;65.39;99808.98;212490;1326;139407;-60
2021/12/13 02:36:50;;;;;;;137.50;66.10;;;;;;;-1.24;65.18;99809.70;213059;1325;139000;-60
2021/12/13 02:41:54;;;;;;;136.40;64.90;;;;;;;-1.36;64.92;99815.64;212236;1324;140236;-62
2021/12/13 02:47:01;;;;;;;145.50;64.00;;;;;;;-1.49;64.87;99821.06;212417;1328;139787;-61
2021/12/13 02:52:09;;;;;;;146.80;66.30;;;;;;;-1.60;65.02;99814.81;212221;1329;139448;-59
2021/12/13 02:57:17;;;;;;;150.90;64.70;;;;;;;-1.70;65.09;99813.41;212108;1328;139502;-58
2021/12/13 03:02:32;;;;;;;152.40;66.80;;;;;;;-1.73;65.24;99820.20;212184;1328;139446;-58
2021/12/13 03:07:41;;;;;;;140.30;66.60;;;;;;;-1.75;65.30;99823.33;212295;1322;140158;-57
2021/12/13 03:12:44;;;;;;;137.50;65.60;;;;;;;-1.75;65.38;99818.27;212080;1330;139459;-56
2021/12/13 03:17:53;;;;;;;151.70;69.20;;;;;;;-1.76;65.41;99820.19;212573;1323;173269;-60
2021/12/13 03:22:56;;;;;;;143.90;67.10;;;;;;;-1.79;65.41;99818.45;212152;1329;141747;-60
2021/12/13 03:28:43;;;;;;;152.80;68.10;;;;;;;-1.80;65.43;99820.02;212378;1326;139641;-59
2021/12/13 03:34:15;;;;;;;164.10;68.40;;;;;;;-1.84;65.45;99829.23;212353;1325;140377;-58
2021/12/13 03:39:24;;;;;;;148.20;65.90;;;;;;;-1.80;65.53;99822.63;212397;1326;140578;-60
2021/12/13 03:44:32;;;;;;;149.00;67.80;;;;;;;-1.78;65.42;99825.57;212379;1328;139479;-59
2021/12/13 03:49:41;;;;;;;148.60;68.70;;;;;;;-1.77;65.32;99835.30;212515;1322;139251;-60
2021/12/13 03:54:45;;;;;;;150.20;65.70;;;;;;;-1.74;65.35;99831.84;212349;1322;139255;-56
2021/12/13 03:59:50;;;;;;;143.40;63.50;;;;;;;-1.72;65.32;99829.23;212990;1322;139453;-56
2021/12/13 04:04:57;;;;;;;137.80;61.30;;;;;;;-1.71;65.06;99830.98;211909;1330;141032;-58
2021/12/13 04:10:08;;;;;;;141.60;64.00;;;;;;;-1.78;64.74;99841.40;213089;1323;139321;-56
2021/12/13 04:15:17;;;;;;;131.50;61.00;;;;;;;-1.90;64.68;99850.27;212716;1327;140363;-59
2021/12/13 04:20:26;;;;;;;137.70;61.90;;;;;;;-2.02;64.66;99850.08;212688;1326;138845;-55
2021/12/13 04:25:33;;;;;;;139.40;61.10;;;;;;;-2.16;64.47;99846.22;212781;1322;139019;-58
2021/12/13 04:30:42;;;;;;;135.30;61.40;;;;;;;-2.24;64.55;99851.42;212307;1326;139420;-57
2021/12/13 04:35:51;;;;;;;132.50;60.30;;;;;;;-2.27;64.74;99859.23;212007;1325;139005;-59
2021/12/13 04:40:55;;;;;;;138.40;62.20;;;;;;;-2.29;64.77;99870.16;212626;1322;141591;-58
2021/12/13 04:46:00;;;;;;;130.40;61.30;;;;;;;-2.27;64.86;99858.36;212285;1328;139435;-57
2021/12/13 04:51:13;;;;;;;136.40;59.50;;;;;;;-2.28;64.77;99852.96;212416;1324;139823;-56
2021/12/13 04:56:25;;;;;;;139.30;61.20;;;;;;;-2.32;64.72;99859.04;212616;1325;140148;-60
2021/12/13 05:01:28;;;;;;;132.50;60.30;;;;;;;-2.36;64.78;99861.29;213159;1322;141836;-59
2021/12/13 05:06:35;;;;;;;141.30;61.40;;;;;;;-2.40;64.71;99854.48;212963;1325;139159;-58
2021/12/13 05:11:42;;;;;;;134.00;60.20;;;;;;;-2.43;64.86;99846.84;212024;1328;139349;-58
2021/12/13 05:16:50;;;;;;;132.00;58.40;;;;;;;-2.42;64.93;99848.93;212731;1327;140419;-57
2021/12/13 05:21:57;;;;;;;135.50;58.80;;;;;;;-2.47;64.75;99852.55;212126;1326;139798;-61
2021/12/13 05:27:10;;;;;;;131.50;59.20;;;;;;;-2.52;64.76;99861.57;212660;1322;139678;-65
2021/12/13 05:32:32;;;;;;;132.40;60.00;;;;;;;-2.51;64.84;99868.89;212300;1328;140382;-61
2021/12/13 05:37:41;;;;;;;138.00;61.70;;;;;;;-2.48;64.81;99869.23;212725;1328;139825;-57
2021/12/13 05:42:48;;;;;;;151.30;67.90;;;;;;;-2.41;65.13;99873.77;212546;1322;141267;-59
2021/12/13 05:48:01;;;;;;;149.90;64.70;;;;;;;-2.23;65.22;99883.22;212353;1320;140600;-58
2021/12/13 05:53:14;;;;;;;147.20;64.80;;;;;;;-2.21;64.93;99895.73;212918;1322;140064;-59
2021/12/13 05:58:44;;;;;;;259.40;123.10;;;;;;;-2.20;64.76;99901.84;213158;1322;139466;-59
2021/12/13 06:04:07;;;;;;;143.50;66.80;;;;;;;-2.11;65.06;99903.92;212835;1326;139495;-59
2021/12/13 06:09:31;;;;;;;143.20;64.60;;;;;;;-2.11;64.48;99906.20;212463;1322;139642;-61
2021/12/13 06:14:34;;;;;;;144.50;64.40;;;;;;;-2.29;64.05;99912.91;213013;1319;139392;-59
2021/12/13 06:19:46;;;;;;;236.90;113.30;;;;;;;-2.43;64.07;99917.72;212753;1328;139330;-61
2021/12/13 06:24:51;;;;;;;153.50;66.30;;;;;;;-0.29;73.27;99908.61;213283;1319;142625;-60
2021/12/13 06:29:59;;;;;;;;;;;;;;;-0.23;65.63;99915.15;212528;1323;140351;-63
2021/12/13 06:35:36;;;;;;;150.10;69.10;;;;;;;-0.76;63.91;99920.70;212883;1322;125316;-58
2021/12/13 06:40:54;;;;;;;146.40;67.60;;;;;;;-1.23;63.63;99927.73;213356;1322;140128;-59
2021/12/13 06:46:03;;;;;;;157.60;70.00;;;;;;;-1.53;63.57;99933.98;212417;1326;140180;-63
2021/12/13 06:51:09;;;;;;;158.10;72.30;;;;;;;-1.76;63.65;99949.95;213802;1320;140012;-62
2021/12/13 06:56:20;;;;;;;;;;;;;;;-1.96;63.69;99952.84;212587;1326;140116;-58
2021/12/13 07:01:27;;;;;;;157.20;71.40;;;;;;;-2.09;64.03;99953.50;212766;1328;125986;-57
2021/12/13 07:06:31;;;;;;;152.50;69.10;;;;;;;-2.01;64.64;99953.86;212488;1327;140713;-59
2021/12/13 07:11:57;;;;;;;152.30;69.60;;;;;;;-2.06;64.21;99961.15;212437;1329;141475;-60
2021/12/13 07:17:09;;;;;;;;;;;;;;;-1.98;65.10;99963.97;212149;1335;140146;-62
2021/12/13 07:22:22;;;;;;;155.40;66.30;;;;;;;-2.01;64.56;99970.03;212653;1325;125393;-60
2021/12/13 07:27:33;;;;;;;163.40;68.90;;;;;;;-2.11;64.50;99976.60;212510;1328;139412;-60
2021/12/13 07:32:42;;;;;;;165.80;71.20;;;;;;;-2.18;64.42;99989.95;212186;1328;139803;-60
2021/12/13 07:37:50;;;;;;;162.60;69.10;;;;;;;-2.27;64.55;99998.27;212017;1330;139308;-59
2021/12/13 07:43:02;;;;;;;164.50;69.60;;;;;;;-2.31;64.71;99996.32;212376;1327;140376;-59
2021/12/13 07:48:13;;;;;;;181.40;70.50;;;;;;;-2.31;64.98;99999.11;212985;1325;139507;-60
2021/12/13 07:53:16;;;;;;;173.60;72.10;;;;;;;-2.35;64.90;100003.25;212761;1322;139891;-60
2021/12/13 07:59:12;;;;;;;188.10;75.20;;;;;;;-2.30;65.25;100008.85;212368;1328;139820;-59
2021/12/13 08:04:22;;;;;;;181.20;73.60;;;;;;;-2.19;65.30;100005.25;211611;1335;141372;-60
2021/12/13 08:09:29;;;;;;;177.90;76.10;;;;;;;-2.09;65.42;100003.55;213016;1327;139700;-63
2021/12/13 08:14:39;;;;;;;190.20;76.60;;;;;;;-2.01;65.41;100005.67;212800;1320;139644;-59
2021/12/13 08:19:44;;;;;;;182.20;78.30;;;;;;;-1.90;65.54;100007.30;213116;1323;139550;-59
2021/12/13 08:24:53;;;;;;;192.80;78.30;;;;;;;-1.80;65.52;100006.80;212157;1328;139603;-60
2021/12/13 08:30:11;;;;;;;183.20;77.50;;;;;;;-1.73;65.72;100008.91;212239;1320;139890;-59
2021/12/13 08:35:14;;;;;;;185.20;77.70;;;;;;;-1.65;65.66;100014.16;212883;1321;140434;-60
2021/12/13 08:40:26;;;;;;;180.00;76.90;;;;;;;-1.57;65.87;100017.83;212825;1322;139605;-63
2021/12/13 08:45:38;;;;;;;180.00;76.70;;;;;;;-1.45;66.03;100027.27;212667;1326;139954;-58
2021/12/13 08:50:48;;;;;;;190.00;78.90;;;;;;;-1.35;65.99;100019.98;211994;1328;140828;-58
2021/12/13 08:56:00;;;;;;;190.50;79.70;;;;;;;-1.30;65.95;100021.38;212318;1323;140067;-61
2021/12/13 09:01:08;;;;;;;182.50;77.90;;;;;;;-1.21;66.21;100021.73;213100;1320;140578;-59
2021/12/13 09:06:17;;;;;;;180.50;77.30;;;;;;;-1.10;66.24;100020.17;212991;1326;140016;-60
2021/12/13 09:11:31;;;;;;;191.90;86.00;;;;;;;-0.95;66.63;100014.27;212711;1326;139656;-56
2021/12/13 09:17:06;;;;;;;153.40;71.20;;;;;;;-0.61;66.96;100010.08;212328;1322;139605;-57
2021/12/13 09:22:18;;;;;;;156.40;69.50;;;;;;;-0.47;66.52;100006.21;212753;1323;139896;-56
2021/12/13 09:27:36;;;;;;;147.80;69.90;;;;;;;-0.40;66.16;100002.02;213021;1326;140518;-58
2021/12/13 09:32:44;;;;;;;151.20;69.30;;;;;;;-0.33;66.17;100004.27;212258;1326;139303;-61
2021/12/13 09:37:49;;;;;;;143.10;71.00;;;;;;;-0.24;66.21;99998.67;212163;1328;139702;-59
2021/12/13 09:42:55;;;;;;;132.90;65.80;;;;;;;-0.12;66.21;99987.13;212041;1327;139912;-59
2021/12/13 09:48:13;;;;;;;114.90;57.30;;;;;;;0.02;66.26;99979.73;212647;1326;139245;-59
2021/12/13 09:53:16;;;;;;;126.50;63.90;;;;;;;0.15;66.23;99978.82;212105;1327;140956;-59
2021/12/13 09:58:32;;;;;;;132.30;64.20;;;;;;;0.30;66.30;99977.16;212315;1328;140228;-60
2021/12/13 10:04:11;;;;;;;127.40;63.70;;;;;;;0.50;66.13;99978.63;212677;1324;139890;-61
2021/12/13 10:09:24;;;;;;;123.20;60.90;;;;;;;0.71;66.37;99977.79;213088;1323;139066;-59
2021/12/13 10:14:35;;;;;;;126.10;60.90;;;;;;;0.90;66.17;99974.34;213176;1321;140675;-63
2021/12/13 10:19:43;;;;;;;133.10;64.10;;;;;;;1.07;65.99;99977.33;212790;1322;139822;-59
2021/12/13 10:24:51;;;;;;;138.10;61.80;;;;;;;1.28;66.01;99981.35;212868;1325;140123;-60
2021/12/13 10:29:59;;;;;;;487.50;271.10;;;;;;;1.50;65.92;99980.61;212430;1323;139448;-59
2021/12/13 10:35:17;;;;;;;145.80;72.70;;;;;;;1.82;66.13;99982.20;213076;1325;162871;-58
2021/12/13 10:40:28;;;;;;;131.40;66.60;;;;;;;2.00;65.56;99972.71;212948;1322;139285;-60
2021/12/13 10:45:40;;;;;;;135.70;63.20;;;;;;;2.02;65.28;99969.36;212522;1319;139164;-61
2021/12/13 10:50:50;;;;;;;118.30;60.80;;;;;;;2.07;65.07;99967.38;212513;1320;140431;-59
2021/12/13 10:56:04;;;;;;;118.40;60.90;;;;;;;2.08;64.81;99962.11;213658;1321;138508;-61
2021/12/13 11:01:11;;;;;;;108.20;58.60;;;;;;;2.14;64.95;99959.41;213171;1325;139478;-61
2021/12/13 11:06:17;;;;;;;102.90;55.10;;;;;;;2.21;64.84;99950.04;212456;1321;139479;-58
2021/12/13 11:11:30;;;;;;;103.80;55.10;;;;;;;2.18;64.53;99938.00;212444;1323;139915;-59
2021/12/13 11:16:37;;;;;;;110.60;54.40;;;;;;;2.17;64.53;99939.59;212398;1325;221679;-59
2021/12/13 11:21:44;;;;;;;104.70;52.30;;;;;;;2.18;64.33;99938.19;212513;1326;140375;-58
2021/12/13 11:26:53;;;;;;;100.60;51.80;;;;;;;2.24;64.51;99936.69;212258;1327;139105;-57
2021/12/13 11:32:34;;;;;;;95.00;49.90;;;;;;;2.33;64.47;99929.21;212425;1327;139668;-60
2021/12/13 11:37:55;;;;;;;94.50;49.60;;;;;;;2.43;64.54;99929.08;212175;1329;138889;-59
2021/12/13 11:43:21;;;;;;;93.30;49.80;;;;;;;2.55;64.52;99935.20;212156;1326;140040;-59
2021/12/13 11:48:55;;;;;;;83.00;45.20;;;;;;;2.69;64.44;99934.98;212309;1321;139301;-59
2021/12/13 11:54:51;;;;;;;75.80;41.30;;;;;;;2.76;64.25;99933.47;212402;1324;139151;-59
2021/12/13 12:00:42;;;;;;;77.40;40.00;;;;;;;2.78;64.03;99920.64;212541;1321;139103;-58
2021/12/13 12:06:03;;;;;;;75.90;42.60;;;;;;;2.82;63.92;99918.30;211926;1328;139150;-58
2021/12/13 12:11:38;;;;;;;75.00;38.80;;;;;;;2.91;63.97;99915.36;212859;1322;139195;-59
2021/12/13 12:16:48;;;;;;;76.80;43.90;;;;;;;2.95;63.58;99906.00;212600;1328;139611;-63
2021/12/13 12:22:09;;;;;;;82.50;43.80;;;;;;;2.94;63.55;99903.73;212370;1328;139831;-57
2021/12/13 12:27:14;;;;;;;82.20;44.70;;;;;;;2.97;63.78;99902.98;212985;1325;139148;-59
2021/12/13 12:32:20;;;;;;;76.80;42.90;;;;;;;2.98;63.78;99901.38;212827;1323;139277;-60
2021/12/13 12:37:37;;;;;;;79.70;42.20;;;;;;;3.07;63.73;99894.04;212186;1322;139996;-59
2021/12/13 12:42:47;;;;;;;79.30;41.80;;;;;;;3.21;63.83;99892.73;212596;1323;139243;-58
2021/12/13 12:47:50;;;;;;;75.50;41.30;;;;;;;3.38;63.76;99896.80;212801;1326;138932;-57
2021/12/13 12:53:00;;;;;;;73.50;39.70;;;;;;;3.49;63.68;99894.84;212513;1329;139349;-57
2021/12/13 12:58:14;;;;;;;77.70;40.40;;;;;;;3.54;63.47;99891.04;213098;1322;139516;-57
2021/12/13 13:03:24;;;;;;;67.80;37.20;;;;;;;3.59;63.44;99894.64;212690;1323;138910;-59
2021/12/13 13:08:35;;;;;;;74.20;39.40;;;;;;;3.62;63.43;99901.77;212760;1322;138777;-57
2021/12/13 13:13:40;;;;;;;74.40;40.30;;;;;;;3.68;63.11;99908.48;212217;1328;139988;-60
2021/12/13 13:18:48;;;;;;;89.40;45.90;;;;;;;3.69;62.98;99915.33;212141;1322;139484;-61
2021/12/13 13:23:56;;;;;;;90.00;49.40;;;;;;;3.63;62.85;99922.29;212349;1328;139584;-59
2021/12/13 13:29:05;;;;;;;98.90;53.70;;;;;;;3.58;62.65;99931.33;212332;1322;139049;-59
2021/12/13 13:34:15;;;;;;;109.10;57.40;;;;;;;3.49;62.81;99936.22;213286;1320;139105;-58
2021/12/13 13:39:21;;;;;;;121.20;60.90;;;;;;;3.46;63.05;99941.36;212697;1326;139803;-61
2021/12/13 13:44:26;;;;;;;;;;;;;;;3.45;62.87;99946.83;212228;1323;139915;-61
2021/12/13 13:49:30;;;;;;;120.40;62.40;;;;;;;3.42;62.90;99950.59;213614;1320;125396;-58
2021/12/13 13:54:33;;;;;;;123.50;64.70;;;;;;;3.41;62.98;99953.41;212913;1322;139264;-60
2021/12/13 13:59:46;;;;;;;117.10;61.90;;;;;;;3.40;63.06;99952.71;212684;1326;139780;-59
2021/12/13 14:04:56;;;;;;;156.90;82.30;;;;;;;3.39;63.12;99952.91;212447;1325;139614;-61
2021/12/13 14:10:06;;;;;;;129.40;66.90;;;;;;;3.47;63.40;99958.73;212549;1321;139197;-60
2021/12/13 14:15:19;;;;;;;119.00;64.00;;;;;;;3.45;63.13;99962.45;212267;1323;140142;-59
2021/12/13 14:20:34;;;;;;;123.40;61.50;;;;;;;3.43;63.07;99964.41;212342;1323;140655;-60
2021/12/13 14:25:43;;;;;;;107.40;57.50;;;;;;;3.43;62.98;99961.42;212463;1322;138797;-58
2021/12/13 14:30:50;;;;;;;114.80;59.10;;;;;;;3.46;63.09;99962.60;212638;1322;140165;-61
2021/12/13 14:36:11;;;;;;;111.70;59.50;;;;;;;3.48;63.03;99966.77;211877;1331;139220;-59
2021/12/13 14:41:16;;;;;;;105.20;57.10;;;;;;;3.39;62.79;99971.67;212682;1322;139159;-60
2021/12/13 14:46:25;;;;;;;111.30;56.30;;;;;;;3.25;62.65;99983.48;213495;1319;139374;-60
2021/12/13 14:51:34;;;;;;;103.40;59.30;;;;;;;3.12;62.63;99993.19;212484;1322;139590;-60
2021/12/13 14:56:38;;;;;;;115.80;58.00;;;;;;;3.00;62.88;99997.41;212490;1323;139251;-58
2021/12/13 15:01:43;;;;;;;114.20;60.60;;;;;;;2.88;62.92;100002.85;213206;1322;139096;-58
2021/12/13 15:07:10;;;;;;;110.80;58.80;;;;;;;2.76;62.89;100007.07;213106;1321;139880;-60
2021/12/13 15:12:18;;;;;;;114.40;59.00;;;;;;;2.59;62.97;100013.79;213235;1322;139223;-60
2021/12/13 15:17:49;;;;;;;201.40;114.80;;;;;;;2.49;63.16;100023.55;212515;1322;139919;-59
2021/12/13 15:22:55;;;;;;;131.10;68.10;;;;;;;2.49;63.89;100027.22;212869;1322;139522;-58
2021/12/13 15:27:59;;;;;;;125.20;63.10;;;;;;;2.46;63.53;100029.90;211902;1331;139699;-60
2021/12/13 15:33:05;;;;;;;110.70;59.20;;;;;;;2.37;63.51;100032.10;211926;1328;140201;-60
2021/12/13 15:38:12;;;;;;;;;;;;;;;2.28;63.60;100033.63;212347;1321;139643;-61
2021/12/13 15:43:41;;;;;;;120.70;62.00;;;;;;;2.19;63.67;100035.67;212232;1322;125436;-62
2021/12/13 15:54:13;;;;;;;;;;;;;;;2.01;63.78;100036.73;212440;1322;139698;-62
2021/12/13 15:59:46;;;;;;;127.20;62.40;;;;;;;1.91;63.83;100041.23;212533;1326;125750;-64
2021/12/13 16:04:54;;;;;;;119.90;61.20;;;;;;;1.85;64.00;100045.66;212963;1322;139262;-62
2021/12/13 16:10:09;;;;;;;113.00;56.90;;;;;;;1.82;63.99;100044.65;213218;1323;139728;-61
2021/12/13 16:15:27;;;;;;;115.50;58.70;;;;;;;1.78;64.08;100056.93;212316;1328;139621;-60
2021/12/13 16:20:32;;;;;;;117.50;57.70;;;;;;;1.74;64.09;100057.67;212479;1325;139427;-60
2021/12/13 16:25:42;;;;;;;114.50;58.60;;;;;;;1.66;64.04;100059.69;212750;1322;140207;-59
2021/12/13 16:30:52;;;;;;;109.50;56.60;;;;;;;1.61;64.11;100056.92;212430;1322;140537;-62
2021/12/13 16:36:08;;;;;;;108.60;57.80;;;;;;;1.57;64.19;100056.27;211790;1325;231281;-63
2021/12/13 16:41:15;;;;;;;110.90;58.60;;;;;;;1.53;64.21;100061.20;212617;1322;139941;-62
2021/12/13 16:46:20;;;;;;;123.80;64.10;;;;;;;1.54;64.40;100067.66;212379;1323;140205;-59
2021/12/13 16:51:34;;;;;;;154.50;75.10;;;;;;;1.54;64.53;100068.54;212968;1322;139322;-61
2021/12/13 16:56:39;;;;;;;152.40;77.20;;;;;;;1.46;64.38;100067.90;212377;1328;140130;-63
2021/12/13 17:01:48;;;;;;;166.40;80.00;;;;;;;1.38;64.38;100071.48;212504;1322;139859;-62
2021/12/13 17:07:02;;;;;;;229.70;119.20;;;;;;;1.28;64.43;100076.10;212171;1328;139402;-60
2021/12/13 17:12:10;;;;;;;181.50;90.90;;;;;;;1.30;64.82;100083.42;212708;1322;140602;-60
2021/12/13 17:17:16;;;;;;;181.40;90.40;;;;;;;1.24;64.48;100087.84;212754;1322;140361;-57
2021/12/13 17:22:22;;;;;;;190.10;94.70;;;;;;;1.14;64.56;100089.48;212362;1319;140424;-61
2021/12/13 17:27:32;;;;;;;184.60;92.00;;;;;;;1.00;64.44;100098.13;212225;1322;139615;-60
2021/12/13 17:32:44;;;;;;;186.80;92.80;;;;;;;0.88;64.41;100103.95;213068;1321;139403;-60
2021/12/13 17:37:58;;;;;;;182.80;91.60;;;;;;;0.80;64.70;100105.76;212567;1322;139013;-61
2021/12/13 17:43:07;;;;;;;197.50;95.90;;;;;;;0.72;64.80;100110.52;212497;1322;139573;-59
2021/12/13 17:48:16;;;;;;;199.50;96.20;;;;;;;0.65;64.89;100110.90;212424;1323;139609;-61
2021/12/13 17:53:30;;;;;;;196.40;95.40;;;;;;;0.59;64.93;100114.59;212614;1323;140802;-61
2021/12/13 17:58:50;;;;;;;185.30;92.50;;;;;;;0.63;65.13;100117.18;212440;1328;139954;-61
2021/12/13 18:04:05;;;;;;;196.60;97.30;;;;;;;0.67;65.33;100122.23;212152;1329;139700;-60
2021/12/13 18:09:28;;;;;;;200.50;97.50;;;;;;;0.70;65.21;100124.30;212291;1322;139751;-60
2021/12/13 18:14:40;;;;;;;197.90;98.60;;;;;;;0.68;65.24;100128.35;212364;1328;138773;-59
2021/12/13 18:20:10;;;;;;;210.90;101.90;;;;;;;0.63;65.20;100127.14;211989;1328;139261;-61
2021/12/13 18:25:20;;;;;;;231.30;116.80;;;;;;;0.62;65.33;100126.97;212389;1325;139697;-61
2021/12/13 18:30:30;;;;;;;205.00;101.40;;;;;;;0.66;65.59;100130.10;213438;1322;139745;-59
2021/12/13 18:35:38;;;;;;;210.10;101.00;;;;;;;0.65;65.27;100128.52;212469;1325;139419;-61
2021/12/13 18:40:41;;;;;;;212.20;103.20;;;;;;;0.56;65.34;100127.00;212310;1327;140128;-62
2021/12/13 18:45:52;;;;;;;203.90;99.90;;;;;;;0.44;65.20;100122.50;212285;1322;139731;-61
2021/12/13 18:51:05;;;;;;;212.30;102.00;;;;;;;0.35;65.10;100121.31;212354;1322;139049;-61
2021/12/13 18:56:17;;;;;;;213.70;102.50;;;;;;;0.26;65.17;100128.66;212432;1322;139751;-61
2021/12/13 19:01:25;;;;;;;230.10;105.20;;;;;;;0.27;65.69;100139.31;212375;1324;140030;-61
2021/12/13 19:06:30;;;;;;;223.90;102.80;;;;;;;0.33;65.70;100147.66;212289;1328;140328;-61
2021/12/13 19:11:40;;;;;;;214.50;102.90;;;;;;;0.33;65.41;100141.91;212293;1323;140023;-61
2021/12/13 19:17:01;;;;;;;218.30;103.90;;;;;;;0.29;65.42;100139.30;212193;1328;179007;-62
2021/12/13 19:22:12;;;;;;;225.40;107.50;;;;;;;0.26;65.56;100142.80;213015;1323;139706;-61
2021/12/13 19:27:35;;;;;;;225.60;106.80;;;;;;;0.42;66.51;100138.39;212456;1323;139505;-61
2021/12/13 19:32:58;;;;;;;230.10;107.90;;;;;;;0.56;65.97;100134.85;212096;1328;143545;-61
2021/12/13 19:38:14;;;;;;;223.90;107.40;;;;;;;0.48;65.59;100140.12;212672;1322;139184;-62
2021/12/13 19:43:29;;;;;;;231.20;107.80;;;;;;;0.40;65.59;100141.02;212736;1321;140753;-61
2021/12/13 19:48:55;;;;;;;216.10;105.70;;;;;;;0.37;65.58;100133.52;212413;1326;139458;-61
2021/12/13 19:54:09;;;;;;;;;;;;;;;0.32;65.54;100137.04;212831;1322;139903;-62
2021/12/13 19:59:43;;;;;;;231.80;106.90;;;;;;;0.30;65.74;100136.50;213196;1322;125173;-60
2021/12/13 20:04:56;;;;;;;219.80;104.30;;;;;;;0.33;66.18;100133.18;212109;1325;139231;-59
2021/12/13 20:10:12;;;;;;;229.70;105.60;;;;;;;0.38;66.16;100134.39;212487;1323;140411;-60
2021/12/13 20:15:30;;;;;;;216.70;106.20;;;;;;;0.38;66.16;100137.19;212888;1325;140068;-61
2021/12/13 20:20:39;;;;;;;256.30;124.70;;;;;;;1.02;70.93;100140.09;212444;1328;139657;-61
2021/12/13 20:25:52;;;;;;;221.00;103.80;;;;;;;3.79;73.37;100134.67;212208;1329;144065;-60
2021/12/13 20:31:10;;;;;;;221.50;106.60;;;;;;;3.53;66.39;100142.11;212380;1325;140427;-62
2021/12/13 20:36:16;;;;;;;222.40;106.60;;;;;;;2.99;64.83;100137.99;213040;1324;140252;-62
2021/12/13 20:41:28;;;;;;;212.80;105.50;;;;;;;2.45;64.17;100140.26;212542;1324;139178;-64
2021/12/13 20:46:41;;;;;;;221.80;104.40;;;;;;;2.02;64.31;100135.45;212117;1328;139323;-63
2021/12/13 20:51:52;;;;;;;212.10;105.80;;;;;;;1.72;64.56;100140.78;212771;1323;140834;-60
2021/12/13 20:57:00;;;;;;;206.30;105.00;;;;;;;1.52;64.82;100140.78;212098;1322;139134;-59
2021/12/13 21:02:11;;;;;;;200.10;101.80;;;;;;;1.36;64.93;100136.70;212881;1322;142734;-60
2021/12/13 21:07:41;;;;;;;201.50;101.50;;;;;;;1.28;65.29;100129.21;213238;1319;142470;-61
2021/12/13 21:12:54;;;;;;;171.00;88.40;;;;;;;1.24;65.57;100131.00;212257;1322;139617;-59
2021/12/13 21:18:03;;;;;;;171.90;85.80;;;;;;;1.22;65.72;100127.35;212375;1328;139434;-60
2021/12/13 21:23:11;;;;;;;178.90;91.10;;;;;;;1.22;65.85;100121.05;212490;1322;139666;-62
2021/12/13 21:28:20;;;;;;;217.40;103.80;;;;;;;1.24;65.99;100121.21;213011;1322;140170;-62
2021/12/13 21:33:26;;;;;;;227.10;103.70;;;;;;;1.28;65.69;100127.31;212846;1324;140136;-60
2021/12/13 21:43:58;;;;;;;232.50;113.90;;;;;;;1.28;65.55;100131.86;212484;1326;140290;-61
2021/12/13 21:49:04;;;;;;;223.80;112.90;;;;;;;1.17;65.31;100124.77;212565;1323;139560;-63
2021/12/13 21:54:12;;;;;;;218.20;109.40;;;;;;;1.07;65.24;100130.59;212469;1322;139245;-60
2021/12/13 21:59:21;;;;;;;224.00;111.20;;;;;;;1.00;65.35;100132.04;212651;1322;140206;-61
2021/12/13 22:04:30;;;;;;;223.70;109.80;;;;;;;0.96;65.53;100124.70;213036;1322;139564;-63
2021/12/13 22:09:46;;;;;;;238.40;112.80;;;;;;;0.88;65.37;100130.16;213229;1325;139996;-60
2021/12/13 22:15:04;;;;;;;216.50;108.00;;;;;;;0.81;65.29;100133.69;212175;1329;140036;-60
2021/12/13 22:20:14;;;;;;;235.50;113.90;;;;;;;0.69;65.18;100128.67;212933;1328;141964;-61
2021/12/13 22:25:24;;;;;;;231.90;111.80;;;;;;;0.59;65.32;100130.81;212130;1328;139403;-61
2021/12/13 22:30:37;;;;;;;233.20;110.90;;;;;;;0.52;65.38;100136.27;213363;1323;140973;-60
2021/12/13 22:35:43;;;;;;;235.20;112.00;;;;;;;0.49;65.53;100132.27;212771;1320;139963;-60
2021/12/13 22:41:00;;;;;;;227.70;109.10;;;;;;;0.45;65.51;100137.33;212522;1326;139392;-58
2021/12/13 22:46:12;;;;;;;233.30;107.60;;;;;;;0.36;65.47;100135.80;212680;1321;139508;-59
2021/12/13 22:51:18;;;;;;;225.70;107.80;;;;;;;0.31;65.70;100139.48;212562;1323;140975;-57
2021/12/13 22:56:23;;;;;;;227.20;108.80;;;;;;;0.26;65.67;100145.77;212471;1327;140357;-59
2021/12/13 23:01:33;;;;;;;245.60;112.90;;;;;;;0.20;65.81;100142.63;212399;1322;140025;-61
2021/12/13 23:06:37;;;;;;;238.60;111.60;;;;;;;0.16;65.79;100141.44;212440;1322;139574;-60
2021/12/13 23:11:51;;;;;;;241.30;114.40;;;;;;;0.18;65.74;100145.61;212143;1329;139815;-63
2021/12/13 23:16:56;;;;;;;269.50;125.40;;;;;;;0.20;65.64;100149.10;212353;1323;139810;-61
2021/12/13 23:22:12;;;;;;;292.40;132.80;;;;;;;0.22;65.54;100146.12;212184;1325;139837;-60
2021/12/13 23:27:19;;;;;;;291.90;133.30;;;;;;;0.13;65.16;100141.26;213108;1326;139484;-58
2021/12/13 23:32:27;;;;;;;286.20;129.20;;;;;;;-0.04;64.71;100142.50;212518;1320;139199;-60